Time;durP1;ratioP1;P1;durP2;ratioP2;P2;SDS_P1;SDS_P2;PMS_P1;PMS_P2;Temp;Humidity;BMP_temperature;BMP_pressure;BME280_temperature;BME280_humidity;BME280_pressure;Samples;Min_cycle;Max_cycle;Signal;HPM_P1;HPM_P2
2023/08/10 00:00:50;;;;;;;;;11.33;10.00;;;;;18.65;100.00;101812.63;5086863;27;45712;-74
2023/08/10 00:03:15;;;;;;;;;10.00;7.33;;;;;18.61;100.00;101819.16;5063050;27;45518;-74
2023/08/10 00:05:40;;;;;;;;;9.00;9.00;;;;;18.64;100.00;101818.94;5094223;27;46493;-74
2023/08/10 00:08:06;;;;;;;;;14.00;13.00;;;;;18.54;100.00;101807.09;5080790;27;51893;-74
2023/08/10 00:10:31;;;;;;;;;11.00;9.67;;;;;18.55;100.00;101806.16;5081608;27;45704;-74
2023/08/10 00:12:57;;;;;;;;;11.67;10.00;;;;;18.56;100.00;101802.47;5083117;27;45523;-74
2023/08/10 00:15:22;;;;;;;;;10.33;9.00;;;;;18.49;100.00;101795.75;5083289;27;45627;-74
2023/08/10 00:17:47;;;;;;;;;10.00;10.00;;;;;18.49;100.00;101807.34;5096090;27;45403;-74
2023/08/10 00:20:13;;;;;;;;;9.33;9.33;;;;;18.45;100.00;101805.84;5083847;27;45715;-74
2023/08/10 00:22:38;;;;;;;;;10.33;9.67;;;;;18.41;100.00;101801.63;5081665;27;45711;-74
2023/08/10 00:25:05;;;;;;;;;14.33;11.00;;;;;18.44;100.00;101804.13;5081520;27;45998;-74
2023/08/10 00:27:30;;;;;;;;;8.33;8.33;;;;;18.42;100.00;101805.19;5082196;27;45449;-74
2023/08/10 00:29:56;;;;;;;;;13.00;11.33;;;;;18.36;100.00;101795.69;5082798;27;45561;-74
2023/08/10 00:32:21;;;;;;;;;8.33;8.33;;;;;18.38;100.00;101807.19;5081915;27;45374;-74
2023/08/10 00:34:47;;;;;;;;;12.00;10.00;;;;;18.36;100.00;101800.19;5085760;27;45693;-74
2023/08/10 00:37:13;;;;;;;;;10.00;10.00;;;;;18.26;100.00;101785.69;5083947;27;45308;-74
2023/08/10 00:39:39;;;;;;;;;11.00;10.67;;;;;18.36;100.00;101805.53;5071305;27;45543;-74
2023/08/10 00:42:04;;;;;;;;;10.67;9.67;;;;;18.29;100.00;101801.56;5069890;27;45546;-74
2023/08/10 00:44:30;;;;;;;;;10.67;9.67;;;;;18.23;100.00;101792.94;5087334;27;45338;-74
2023/08/10 00:46:55;;;;;;;;;7.67;7.67;;;;;18.23;100.00;101800.97;5082406;27;45383;-74
2023/08/10 00:49:21;;;;;;;;;9.67;9.67;;;;;18.27;100.00;101806.13;5081281;27;45641;-74
2023/08/10 00:51:46;;;;;;;;;11.00;11.00;;;;;18.22;100.00;101807.28;5091708;27;45475;-74
2023/08/10 00:54:12;;;;;;;;;8.67;8.67;;;;;18.23;100.00;101806.31;5084067;27;46570;-74
2023/08/10 00:56:38;;;;;;;;;10.00;10.00;;;;;18.21;100.00;101813.59;5099162;27;45347;-74
2023/08/10 00:59:03;;;;;;;;;8.00;7.33;;;;;18.13;100.00;101794.47;5084437;27;45316;-74
2023/08/10 01:01:29;;;;;;;;;8.67;6.33;;;;;18.10;100.00;101800.03;5084328;27;45300;-74
2023/08/10 01:03:54;;;;;;;;;6.67;5.67;;;;;18.14;100.00;101803.38;5095045;27;45222;-74
2023/08/10 01:06:38;;;;;;;;;3.67;3.00;;;;;18.13;100.00;101812.34;5088422;27;45653;-74
2023/08/10 01:09:19;;;;;;;;;10.33;9.33;;;;;18.10;100.00;101809.88;5087655;27;45378;-74
2023/08/10 01:12:20;;;;;;;;;8.00;6.33;;;;;18.09;100.00;101814.38;5080760;27;45403;-74
2023/08/10 01:15:00;;;;;;;;;9.67;8.33;;;;;18.03;100.00;101813.91;5086949;27;45375;-74
2023/08/10 01:17:28;;;;;;;;;9.33;7.67;;;;;17.95;100.00;101810.84;5078317;27;46993;-74
2023/08/10 01:19:56;;;;;;;;;10.67;9.67;;;;;18.03;100.00;101827.28;5063537;28;45540;-74
2023/08/10 01:22:45;;;;;;;;;7.00;7.00;;;;;18.01;100.00;101830.06;5081187;27;45699;-74
2023/08/10 01:25:12;;;;;;;;;11.67;9.33;;;;;17.99;100.00;101823.06;5047730;27;45581;-74
2023/08/10 01:27:38;;;;;;;;;7.00;7.00;;;;;17.96;100.00;101828.63;5062128;28;45502;-75
2023/08/10 01:30:04;;;;;;;;;7.67;7.67;;;;;17.96;100.00;101823.28;5080299;27;45367;-74
2023/08/10 01:32:31;;;;;;;;;8.67;8.00;;;;;17.91;100.00;101828.03;5081058;27;46027;-74
2023/08/10 01:34:57;;;;;;;;;8.00;7.00;;;;;17.88;100.00;101836.25;5078919;27;45488;-74
2023/08/10 01:37:23;;;;;;;;;10.00;8.67;;;;;17.88;100.00;101837.13;5094096;27;45253;-74
2023/08/10 01:39:50;;;;;;;;;11.00;8.00;;;;;17.88;100.00;101845.16;5089475;27;45344;-74
2023/08/10 01:42:15;;;;;;;;;8.00;8.00;;;;;17.87;100.00;101842.53;5095687;27;45320;-74
2023/08/10 01:44:40;;;;;;;;;9.00;8.00;;;;;17.81;100.00;101848.28;5086970;27;45407;-74
2023/08/10 01:47:28;;;;;;;;;11.33;9.67;;;;;17.82;100.00;101842.84;5093267;27;45504;-74
2023/08/10 01:50:01;;;;;;;;;6.00;6.00;;;;;17.80;100.00;101844.72;5085616;27;45437;-74
2023/08/10 01:52:51;;;;;;;;;8.00;7.00;;;;;17.77;100.00;101847.59;5064945;28;45681;-74
2023/08/10 01:55:17;;;;;;;;;5.67;5.67;;;;;17.75;100.00;101849.50;5080826;27;45411;-74
2023/08/10 01:57:44;;;;;;;;;9.33;8.33;;;;;17.66;100.00;101842.06;5086828;27;45498;-74
2023/08/10 02:00:12;;;;;;;;;8.00;8.00;;;;;17.68;100.00;101848.16;5082153;27;45316;-74
2023/08/10 02:02:37;;;;;;;;;9.00;7.33;;;;;17.69;100.00;101855.25;5082742;27;45565;-73
2023/08/10 02:05:03;;;;;;;;;9.67;7.33;;;;;17.66;100.00;101853.63;5080424;27;45379;-74
2023/08/10 02:07:28;;;;;;;;;7.67;7.67;;;;;17.60;100.00;101848.59;5093728;27;45537;-74
2023/08/10 02:09:53;;;;;;;;;9.00;7.33;;;;;17.55;100.00;101840.00;5082003;27;45371;-74
2023/08/10 02:12:18;;;;;;;;;8.00;8.00;;;;;17.61;100.00;101849.47;5066497;27;45682;-73
2023/08/10 02:14:44;;;;;;;;;9.00;9.00;;;;;17.53;100.00;101830.31;5079605;28;45351;-74
2023/08/10 02:17:10;;;;;;;;;6.33;6.33;;;;;17.56;100.00;101846.22;5090111;27;45288;-74
2023/08/10 02:19:35;;;;;;;;;9.67;9.67;;;;;17.55;100.00;101845.34;5089409;27;45287;-73
2023/08/10 02:22:01;;;;;;;;;10.33;8.33;;;;;17.53;100.00;101838.34;5086034;27;45196;-74
2023/08/10 02:24:26;;;;;;;;;10.00;7.67;;;;;17.50;100.00;101838.53;5080238;27;45376;-74
2023/08/10 02:26:51;;;;;;;;;7.00;7.00;;;;;17.42;100.00;101822.06;5079268;27;45303;-74
2023/08/10 02:29:17;;;;;;;;;10.00;7.67;;;;;17.41;100.00;101826.56;5062318;28;45262;-74
2023/08/10 02:31:43;;;;;;;;;8.33;7.33;;;;;17.43;100.00;101835.38;5080322;27;45492;-74
2023/08/10 02:34:08;;;;;;;;;6.00;6.00;;;;;17.41;100.00;101831.03;5082933;27;45651;-74
2023/08/10 02:36:34;;;;;;;;;7.67;7.67;;;;;17.42;100.00;101830.97;5085744;27;50560;-74
2023/08/10 02:39:00;;;;;;;;;7.00;6.33;;;;;17.35;100.00;101820.69;5082051;27;45567;-74
2023/08/10 02:41:25;;;;;;;;;8.33;7.00;;;;;17.37;100.00;101834.88;5079372;28;45276;-74
2023/08/10 02:43:51;;;;;;;;;8.00;8.00;;;;;17.33;100.00;101828.84;5082854;27;45725;-74
2023/08/10 02:46:16;;;;;;;;;9.67;7.00;;;;;17.33;100.00;101828.84;5091778;27;45365;-74
2023/08/10 02:48:41;;;;;;;;;6.00;6.00;;;;;17.35;100.00;101829.59;5085448;27;45500;-74
2023/08/10 02:51:07;;;;;;;;;8.67;7.00;;;;;17.34;100.00;101830.53;5085082;27;52661;-74
2023/08/10 02:53:32;;;;;;;;;7.00;7.00;;;;;17.35;100.00;101831.41;5083463;27;46790;-74
2023/08/10 02:55:57;;;;;;;;;8.67;8.00;;;;;17.37;100.00;101837.53;5088456;27;45513;-74
2023/08/10 02:58:23;;;;;;;;;8.00;8.00;;;;;17.44;100.00;101844.25;5094426;27;45328;-73
2023/08/10 03:00:48;;;;;;;;;9.00;7.00;;;;;17.44;100.00;101839.75;5089656;27;45478;-74
2023/08/10 03:03:14;;;;;;;;;9.00;6.00;;;;;17.43;100.00;101839.84;5084951;27;55281;-74
2023/08/10 03:05:40;;;;;;;;;8.00;6.67;;;;;17.41;100.00;101829.22;5086210;27;45440;-74
2023/08/10 03:08:06;;;;;;;;;7.67;7.67;;;;;17.42;100.00;101830.09;5093222;27;45497;-74
2023/08/10 03:10:31;;;;;;;;;9.00;8.00;;;;;17.38;100.00;101833.88;5090350;27;45284;-73
2023/08/10 03:12:56;;;;;;;;;9.00;7.67;;;;;17.38;100.00;101840.09;5088246;27;46415;-74
2023/08/10 03:15:22;;;;;;;;;6.67;6.67;;;;;17.35;100.00;101836.75;5082833;27;45723;-74
2023/08/10 03:17:47;;;;;;;;;7.00;7.00;;;;;17.24;100.00;101820.50;5085719;27;45343;-74
2023/08/10 03:20:14;;;;;;;;;6.33;6.33;;;;;17.25;100.00;101824.88;5077072;27;45415;-74
2023/08/10 03:22:40;;;;;;;;;10.33;9.33;;;;;17.23;100.00;101821.44;5081561;27;45965;-74
2023/08/10 03:25:06;;;;;;;;;10.00;7.67;;;;;17.19;100.00;101824.28;5083212;27;45444;-74
2023/08/10 03:27:31;;;;;;;;;9.67;8.33;;;;;17.22;100.00;101827.72;5094631;27;45480;-74
2023/08/10 03:29:57;;;;;;;;;9.33;7.00;;;;;17.10;100.00;101805.25;5082847;27;57766;-74
2023/08/10 03:32:22;;;;;;;;;10.00;9.00;;;;;17.13;100.00;101810.41;5082410;27;45403;-74
2023/08/10 03:34:47;;;;;;;;;10.33;9.00;;;;;17.15;100.00;101825.41;5084291;27;47474;-74
2023/08/10 03:37:13;;;;;;;;;8.00;6.33;;;;;17.13;100.00;101835.34;5085710;27;45707;-74
2023/08/10 03:39:38;;;;;;;;;7.00;7.00;;;;;17.15;100.00;101840.59;5067047;28;45840;-74
2023/08/10 03:42:03;;;;;;;;;8.67;8.00;;;;;17.13;100.00;101843.38;5077619;27;57252;-74
2023/08/10 03:44:28;;;;;;;;;7.00;7.00;;;;;17.13;100.00;101840.69;5096410;27;45337;-74
2023/08/10 03:46:54;;;;;;;;;8.00;8.00;;;;;17.08;100.00;101829.38;5088735;27;45538;-74
2023/08/10 03:49:23;;;;;;;;;8.00;8.00;;;;;17.11;100.00;101839.06;5091349;27;45524;-74
2023/08/10 03:51:50;;;;;;;;;7.00;6.67;;;;;17.08;100.00;101834.72;5071092;27;46679;-74
2023/08/10 03:54:15;;;;;;;;;10.33;8.67;;;;;17.01;100.00;101840.53;5095950;27;45378;-74
2023/08/10 03:56:41;;;;;;;;;5.00;5.00;;;;;17.07;100.00;101848.19;5098444;27;45426;-74
2023/08/10 03:59:06;;;;;;;;;12.67;10.00;;;;;17.04;100.00;101841.22;5094222;27;53477;-74
2023/08/10 04:01:31;;;;;;;;;10.00;8.00;;;;;17.06;100.00;101860.69;5075882;28;47523;-74
2023/08/10 04:03:57;;;;;;;;;10.00;9.67;;;;;17.01;100.00;101859.25;5080280;27;45603;-74
2023/08/10 04:06:22;;;;;;;;;10.67;10.33;;;;;17.02;100.00;101858.28;5086387;27;45709;-74
2023/08/10 04:08:48;;;;;;;;;8.67;8.67;;;;;16.96;100.00;101850.63;5086049;27;45462;-74
2023/08/10 04:11:14;;;;;;;;;9.00;9.00;;;;;16.91;100.00;101845.56;5070684;28;46345;-74
2023/08/10 04:13:40;;;;;;;;;8.67;7.00;;;;;16.97;100.00;101855.03;5086468;27;45317;-74
2023/08/10 04:16:06;;;;;;;;;8.00;7.00;;;;;16.92;100.00;101854.41;5083840;27;45276;-74
2023/08/10 04:18:31;;;;;;;;;5.33;5.33;;;;;16.92;100.00;101860.63;5095385;27;45225;-74
2023/08/10 04:20:57;;;;;;;;;7.67;7.00;;;;;16.88;100.00;101855.56;5093269;27;45826;-74
2023/08/10 04:23:22;;;;;;;;;8.00;8.00;;;;;16.88;100.00;101856.41;5080676;27;45742;-74
2023/08/10 04:25:47;;;;;;;;;8.00;8.00;;;;;16.82;100.00;101847.88;5089792;27;45415;-74
2023/08/10 04:28:13;;;;;;;;;10.67;8.00;;;;;16.84;100.00;101862.00;5088674;27;45366;-73
2023/08/10 04:30:38;;;;;;;;;9.00;7.33;;;;;16.83;100.00;101857.59;5093618;27;45432;-74
2023/08/10 04:33:04;;;;;;;;;9.67;9.00;;;;;16.78;100.00;101849.88;5081608;27;50472;-73
2023/08/10 04:35:29;;;;;;;;;5.67;5.00;;;;;16.78;100.00;101847.19;5070579;27;45526;-74
2023/08/10 04:37:55;;;;;;;;;8.00;7.67;;;;;16.82;100.00;101850.56;5083853;27;45594;-73
2023/08/10 04:40:21;;;;;;;;;8.00;8.00;;;;;16.79;100.00;101858.72;5091211;27;46252;-74
2023/08/10 04:42:46;;;;;;;;;6.67;6.67;;;;;16.79;100.00;101862.25;5083481;27;45440;-74
2023/08/10 04:45:12;;;;;;;;;8.33;8.00;;;;;16.78;100.00;101857.00;5095071;27;45453;-74
2023/08/10 04:47:38;;;;;;;;;5.33;5.33;;;;;16.80;100.00;101861.31;5088968;27;45444;-74
2023/08/10 04:50:04;;;;;;;;;7.33;7.33;;;;;16.79;100.00;101862.25;5100060;27;45315;-74
2023/08/10 04:52:29;;;;;;;;;7.33;7.33;;;;;16.80;100.00;101866.66;5084873;27;45303;-74
2023/08/10 04:54:55;;;;;;;;;7.33;7.33;;;;;16.76;100.00;101866.91;5092918;27;45327;-74
2023/08/10 04:57:20;;;;;;;;;8.33;8.33;;;;;16.81;100.00;101872.88;5088289;27;47402;-74
2023/08/10 04:59:46;;;;;;;;;9.33;8.00;;;;;16.81;100.00;101873.75;5086137;27;45268;-73
2023/08/10 05:02:11;;;;;;;;;9.00;9.00;;;;;16.76;100.00;101867.78;5070279;28;45990;-74
2023/08/10 05:04:36;;;;;;;;;9.00;8.00;;;;;16.79;100.00;101861.38;5081452;27;45561;-74
2023/08/10 05:07:02;;;;;;;;;9.00;8.00;;;;;16.71;100.00;101848.47;5083707;27;45296;-74
2023/08/10 05:09:27;;;;;;;;;6.33;6.33;;;;;16.79;100.00;101870.28;5080611;27;45477;-74
2023/08/10 05:11:53;;;;;;;;;8.33;8.00;;;;;16.77;100.00;101864.16;5085112;27;45224;-74
2023/08/10 05:14:18;;;;;;;;;9.00;8.00;;;;;16.77;100.00;101874.84;5090673;27;47808;-74
2023/08/10 05:16:45;;;;;;;;;7.00;6.00;;;;;16.72;100.00;101858.19;5063901;28;45677;-74
2023/08/10 05:19:10;;;;;;;;;14.00;7.67;;;;;16.81;100.00;101868.41;5077624;28;45529;-74
2023/08/10 05:21:35;;;;;;;;;10.67;8.00;;;;;16.91;100.00;101879.44;5083447;27;45383;-74
2023/08/10 05:24:00;;;;;;;;;6.33;6.33;;;;;16.93;100.00;101872.16;5080561;28;45479;-74
2023/08/10 05:26:27;;;;;;;;;8.67;6.00;;;;;16.93;100.00;101869.50;5080018;27;45423;-74
2023/08/10 05:28:53;;;;;;;;;8.33;8.00;;;;;16.92;100.00;101863.28;5079434;27;46822;-74
2023/08/10 05:31:18;;;;;;;;;8.67;6.67;;;;;17.03;100.00;101870.69;5094481;27;45375;-74
2023/08/10 05:33:44;;;;;;;;;13.00;9.00;;;;;17.00;100.00;101850.38;5085356;27;45305;-74
2023/08/10 05:36:09;;;;;;;;;7.33;7.33;;;;;17.10;100.00;101853.38;5064707;27;45309;-74
2023/08/10 05:38:34;;;;;;;;;11.00;8.00;;;;;17.15;100.00;101862.84;5088898;27;45530;-74
2023/08/10 05:41:01;;;;;;;;;9.00;8.00;;;;;17.28;100.00;101868.34;5091289;27;45300;-74
2023/08/10 05:43:26;;;;;;;;;9.67;8.00;;;;;17.36;100.00;101870.56;5084899;27;45273;-74
2023/08/10 05:45:52;;;;;;;;;8.67;8.00;;;;;17.44;100.00;101865.66;5087906;27;45690;-74
2023/08/10 05:48:17;;;;;;;;;11.00;10.00;;;;;17.52;100.00;101858.88;5085031;27;46053;-74
2023/08/10 05:50:43;;;;;;;;;11.00;11.00;;;;;17.59;100.00;101857.59;5088472;27;45210;-74
2023/08/10 05:53:08;;;;;;;;;12.00;10.00;;;;;17.66;100.00;101848.25;5082891;27;45395;-74
2023/08/10 05:55:34;;;;;;;;;9.00;9.00;;;;;17.77;100.00;101854.78;5088869;27;45274;-74
2023/08/10 05:58:00;;;;;;;;;8.33;8.33;;;;;17.87;100.00;101851.44;5075807;27;45539;-74
2023/08/10 06:00:27;;;;;;;;;6.67;5.67;;;;;17.94;100.00;101844.75;5084521;27;45497;-74
2023/08/10 06:02:52;;;;;;;;;9.67;8.33;;;;;17.97;100.00;101831.19;5079980;27;45363;-75
2023/08/10 06:05:18;;;;;;;;;11.33;10.33;;;;;18.06;100.00;101838.66;5083650;27;45693;-75
2023/08/10 06:07:47;;;;;;;;;11.00;9.00;;;;;18.18;100.00;101843.25;5083474;27;45774;-74
2023/08/10 06:10:13;;;;;;;;;10.00;9.00;;;;;18.20;100.00;101829.75;5083304;27;45568;-74
2023/08/10 06:12:38;;;;;;;;;8.33;8.33;;;;;18.32;100.00;101838.84;5094310;27;45298;-74
2023/08/10 06:15:04;;;;;;;;;8.00;8.00;;;;;18.37;100.00;101834.06;5078994;27;45447;-74
2023/08/10 06:17:31;;;;;;;;;9.67;9.67;;;;;18.44;100.00;101838.94;5074074;27;46317;-74
2023/08/10 06:19:57;;;;;;;;;7.00;7.00;;;;;18.49;100.00;101833.28;5079140;27;45381;-74
2023/08/10 06:22:23;;;;;;;;;8.00;8.00;;;;;18.53;100.00;101829.47;5079910;27;45416;-74
2023/08/10 06:24:48;;;;;;;;;9.00;9.00;;;;;18.62;100.00;101832.44;5061283;28;45659;-74
2023/08/10 06:27:14;;;;;;;;;7.67;6.33;;;;;18.68;100.00;101833.88;5080358;27;45352;-74
2023/08/10 06:29:40;;;;;;;;;9.00;8.00;;;;;18.79;100.00;101835.84;5094775;27;45411;-74
2023/08/10 06:32:07;;;;;;;;;6.67;6.67;;;;;18.81;100.00;101828.56;5081881;27;45391;-74
2023/08/10 06:34:33;;;;;;;;;10.00;9.00;;;;;18.96;99.92;101832.91;5096446;27;45704;-74
2023/08/10 06:36:59;;;;;;;;;9.00;8.67;;;;;19.07;100.00;101835.75;5092595;27;45643;-74
2023/08/10 06:39:25;;;;;;;;;11.00;10.00;;;;;19.12;100.00;101834.50;5087715;27;45629;-75
2023/08/10 06:41:52;;;;;;;;;8.00;8.00;;;;;19.14;99.39;101835.22;5084166;27;45494;-74
2023/08/10 06:44:18;;;;;;;;;8.33;8.33;;;;;19.08;100.00;101822.25;5079970;28;45366;-74
2023/08/10 06:46:43;;;;;;;;;9.00;8.00;;;;;19.16;100.00;101833.34;5093093;27;46268;-74
2023/08/10 06:49:08;;;;;;;;;8.33;7.67;;;;;19.27;100.00;101828.09;5068281;27;45483;-74
2023/08/10 06:51:34;;;;;;;;;10.33;8.67;;;;;19.46;100.00;101822.41;5072435;28;45773;-74
2023/08/10 06:53:59;;;;;;;;;8.67;8.00;;;;;19.58;95.05;101807.25;5067989;28;51219;-73
2023/08/10 06:56:24;;;;;;;;;11.00;9.33;;;;;19.83;96.02;101814.50;5093978;27;45351;-74
2023/08/10 06:58:51;;;;;;;;;12.00;10.67;;;;;19.87;95.08;101808.78;5085291;27;45345;-74
2023/08/10 07:01:17;;;;;;;;;6.67;6.67;;;;;19.91;93.94;101798.69;5090148;27;45281;-74
2023/08/10 07:03:42;;;;;;;;;8.67;7.00;;;;;19.79;94.30;101795.06;5087965;27;45501;-74
2023/08/10 07:06:08;;;;;;;;;9.33;9.33;;;;;19.93;93.31;101794.94;5079557;27;46313;-73
2023/08/10 07:08:33;;;;;;;;;7.00;7.00;;;;;19.94;92.90;101793.09;5087073;27;45248;-74
2023/08/10 07:11:02;;;;;;;;;8.00;7.67;;;;;19.97;93.86;101800.94;5077755;27;45253;-75
2023/08/10 07:13:27;;;;;;;;;8.00;8.00;;;;;19.99;92.21;101794.50;5093883;27;45630;-74
2023/08/10 07:15:53;;;;;;;;;10.67;8.33;;;;;20.04;92.26;101789.66;5091154;27;46197;-75
2023/08/10 07:18:18;;;;;;;;;10.67;8.33;;;;;20.09;92.19;101781.31;5071148;28;46498;-74
2023/08/10 07:20:43;;;;;;;;;8.00;5.00;;;;;20.23;90.98;101786.53;5081303;27;45520;-74
2023/08/10 07:23:09;;;;;;;;;8.33;6.00;;;;;20.23;91.88;101763.19;5096244;27;48929;-74
2023/08/10 07:25:37;;;;;;;;;9.00;8.00;;;;;20.40;89.16;101796.94;5075645;27;47550;-74
2023/08/10 07:28:04;;;;;;;;;10.33;9.00;;;;;20.58;88.26;101798.28;5079630;27;45306;-74
2023/08/10 07:30:29;;;;;;;;;7.33;7.00;;;;;20.81;88.02;101809.19;5060927;27;45411;-74
2023/08/10 07:32:55;;;;;;;;;8.00;6.33;;;;;20.90;88.44;101816.59;5081190;27;45268;-75
2023/08/10 07:35:21;;;;;;;;;10.00;8.00;;;;;20.94;87.03;101826.16;5084272;27;46319;-75
2023/08/10 07:37:48;;;;;;;;;10.33;8.67;;;;;20.93;86.68;101838.72;5075737;27;45405;-74
2023/08/10 07:40:13;;;;;;;;;10.33;7.33;;;;;21.00;86.71;101842.69;5072766;27;45472;-75
2023/08/10 07:42:39;;;;;;;;;11.67;9.33;;;;;21.13;84.14;101848.91;5084882;27;45448;-74
2023/08/10 07:45:05;;;;;;;;;11.33;10.33;;;;;21.23;83.20;101844.56;5079461;27;47322;-74
2023/08/10 07:47:31;;;;;;;;;9.00;8.00;;;;;21.49;84.18;101849.78;5093865;27;45451;-74
2023/08/10 07:49:56;;;;;;;;;7.00;6.67;;;;;21.61;84.01;101846.16;5094524;27;45540;-75
2023/08/10 07:52:21;;;;;;;;;9.33;9.00;;;;;21.79;80.77;101853.66;5078839;27;45528;-74
2023/08/10 07:54:47;;;;;;;;;8.67;8.67;;;;;21.99;81.13;101857.53;5085667;27;47700;-74
2023/08/10 07:57:12;;;;;;;;;8.00;6.67;;;;;22.14;80.95;101850.97;5084907;27;45377;-74
2023/08/10 07:59:37;;;;;;;;;9.33;7.67;;;;;22.37;78.92;101850.97;5092497;27;45259;-75
2023/08/10 08:02:03;;;;;;;;;10.67;8.00;;;;;22.56;79.49;101843.09;5083249;27;45356;-74
2023/08/10 08:04:28;;;;;;;;;7.33;7.33;;;;;22.78;77.74;101838.56;5097560;27;46475;-74
2023/08/10 08:06:53;;;;;;;;;7.67;7.33;;;;;23.08;78.35;101854.06;5081880;27;45368;-75
2023/08/10 08:09:19;;;;;;;;;8.67;8.00;;;;;23.25;76.65;101847.28;5083338;27;45398;-75
2023/08/10 08:11:44;;;;;;;;;7.67;6.33;;;;;23.34;75.57;101858.16;5087384;27;45318;-75
2023/08/10 08:14:10;;;;;;;;;6.00;6.00;;;;;23.36;72.92;101866.13;5083255;27;45384;-75
2023/08/10 08:16:35;;;;;;;;;6.00;5.33;;;;;23.39;73.26;101857.78;5076690;27;45837;-75
2023/08/10 08:19:00;;;;;;;;;5.33;5.33;;;;;23.54;71.88;101864.59;5083883;27;45602;-75
2023/08/10 08:21:28;;;;;;;;;5.00;4.00;;;;;23.70;73.12;101875.81;5091314;27;47899;-75
2023/08/10 08:23:54;;;;;;;;;6.33;5.00;;;;;23.91;72.79;101881.25;5082969;27;45495;-75
2023/08/10 08:26:21;;;;;;;;;5.67;4.67;;;;;23.96;71.31;101868.16;5083718;27;45395;-75
2023/08/10 08:28:47;;;;;;;;;4.00;4.00;;;;;23.91;68.08;101858.75;5086131;27;45430;-75
2023/08/10 08:31:13;;;;;;;;;7.00;5.00;;;;;24.09;70.01;101854.44;5099915;27;45292;-75
2023/08/10 08:33:39;;;;;;;;;4.33;4.33;;;;;24.27;70.00;101859.16;5091553;27;46691;-75
2023/08/10 08:36:06;;;;;;;;;4.33;4.33;;;;;24.31;66.00;101841.63;5101782;27;45983;-75
2023/08/10 08:38:32;;;;;;;;;5.33;5.33;;;;;24.51;66.68;101860.69;5084179;27;45372;-75
2023/08/10 08:41:03;;;;;;;;;4.00;4.00;;;;;24.61;66.35;101851.59;5081623;27;45440;-75
2023/08/10 08:43:29;;;;;;;;;4.00;4.00;;;;;24.74;63.51;101841.38;5081474;27;45330;-75
2023/08/10 08:45:56;;;;;;;;;4.67;3.67;;;;;24.88;65.58;101851.84;5083000;27;45424;-75
2023/08/10 08:48:22;;;;;;;;;4.00;4.00;;;;;24.93;62.83;101842.47;5074764;28;45446;-75
2023/08/10 08:50:47;;;;;;;;;8.00;5.00;;;;;25.06;64.22;101848.47;5082423;27;45376;-75
2023/08/10 08:53:13;;;;;;;;;2.67;2.67;;;;;25.13;63.61;101846.91;5080717;27;45360;-75
2023/08/10 08:55:39;;;;;;;;;4.00;4.00;;;;;25.16;63.91;101820.38;5081602;27;45432;-75
2023/08/10 08:58:05;;;;;;;;;4.00;4.00;;;;;25.42;63.01;101832.34;5080250;27;45483;-76
2023/08/10 09:00:32;;;;;;;;;5.33;4.00;;;;;25.50;59.74;101828.09;5081503;27;45411;-75
2023/08/10 09:02:58;;;;;;;;;5.67;4.67;;;;;25.55;60.80;101823.13;5097312;27;46536;-75
2023/08/10 09:05:23;;;;;;;;;5.67;4.00;;;;;25.64;62.21;101812.28;5091260;27;45267;-75
2023/08/10 09:07:50;;;;;;;;;3.00;3.00;;;;;25.83;62.53;101812.22;5092926;27;45329;-75
2023/08/10 09:10:16;;;;;;;;;4.67;3.00;;;;;25.91;60.05;101808.81;5080792;28;45346;-76
2023/08/10 09:12:41;;;;;;;;;6.00;4.33;;;;;25.88;60.99;101795.53;5080392;27;45395;-75
2023/08/10 09:15:09;;;;;;;;;4.00;4.00;;;;;26.00;61.79;101791.63;5081175;27;45386;-75
2023/08/10 09:17:54;;;;;;;;;4.00;3.00;;;;;26.08;60.59;101778.19;5075766;27;45398;-75
2023/08/10 09:20:26;;;;;;;;;4.33;4.00;;;;;26.21;57.88;101786.88;5080856;27;45530;-76
2023/08/10 09:22:54;;;;;;;;;4.00;4.00;;;;;26.19;58.78;101767.19;5075724;27;47009;-75
2023/08/10 09:25:20;;;;;;;;;3.00;3.00;;;;;26.36;58.59;101779.97;5080651;28;45376;-75
2023/08/10 09:27:47;;;;;;;;;4.00;3.00;;;;;26.46;57.92;101779.03;5082055;27;45244;-75
2023/08/10 09:30:14;;;;;;;;;5.00;4.00;;;;;26.48;57.49;101774.31;5080304;27;45299;-75
2023/08/10 09:32:40;;;;;;;;;4.00;4.00;;;;;26.58;58.89;101783.25;5098518;27;45586;-75
2023/08/10 09:35:11;;;;;;;;;2.33;0.33;;;;;26.79;59.04;101790.13;5086156;27;45407;-75
2023/08/10 09:37:37;;;;;;;;;4.67;3.00;;;;;27.05;59.79;101797.53;5067188;27;45460;-75
2023/08/10 09:40:06;;;;;;;;;6.67;5.00;;;;;27.17;57.83;101778.13;5062760;28;45312;-75
2023/08/10 09:42:32;;;;;;;;;4.00;4.00;;;;;27.39;56.72;101780.34;5064107;27;46308;-75
2023/08/10 09:45:00;;;;;;;;;4.00;3.33;;;;;27.41;58.55;101786.50;5080188;27;45369;-75
2023/08/10 09:47:25;;;;;;;;;4.00;3.00;;;;;27.30;56.25;101783.16;5079971;27;45423;-75
2023/08/10 09:50:01;;;;;;;;;2.00;2.00;;;;;27.33;55.87;101789.13;5087968;27;45340;-75
2023/08/10 09:52:27;;;;;;;;;5.00;5.00;;;;;27.46;56.67;101786.03;5078647;27;47151;-75
2023/08/10 09:54:55;;;;;;;;;5.00;3.33;;;;;27.59;56.48;101781.06;5089248;27;45289;-75
2023/08/10 09:57:21;;;;;;;;;3.67;2.00;;;;;27.86;56.21;101774.59;5097085;27;45435;-75
2023/08/10 09:59:47;;;;;;;;;3.67;3.67;;;;;27.93;57.76;101781.97;5079863;27;45521;-75
2023/08/10 10:02:14;;;;;;;;;4.00;4.00;;;;;27.89;54.85;101766.13;5080545;27;45348;-75
2023/08/10 10:04:44;;;;;;;;;2.33;2.33;;;;;27.71;55.08;101751.75;5080028;27;45407;-75
2023/08/10 10:07:13;;;;;;;;;2.67;2.67;;;;;27.60;54.91;101760.16;5079849;28;45432;-76
2023/08/10 10:09:43;;;;;;;;;3.67;2.67;;;;;27.42;54.50;101752.88;5076595;28;45481;-76
2023/08/10 10:12:11;;;;;;;;;2.00;2.00;;;;;27.37;56.84;101770.66;5080327;27;45304;-75
2023/08/10 10:14:40;;;;;;;;;2.00;2.00;;;;;27.19;56.79;101751.66;5086291;27;45600;-76
2023/08/10 10:17:06;;;;;;;;;2.33;2.33;;;;;27.23;57.76;101755.78;5091149;27;45281;-76
2023/08/10 10:19:33;;;;;;;;;2.67;2.67;;;;;27.19;55.93;101737.25;5089553;27;45292;-75
2023/08/10 10:22:00;;;;;;;;;3.33;2.00;;;;;27.16;58.00;101738.38;5091034;27;45283;-75
2023/08/10 10:24:31;;;;;;;;;3.00;2.00;;;;;27.05;57.58;101713.34;5084135;27;45284;-75
2023/08/10 10:27:08;;;;;;;;;4.00;4.00;;;;;26.98;56.77;101715.84;5080803;27;45304;-76
2023/08/10 10:29:40;;;;;;;;;3.67;3.00;;;;;27.21;58.52;101727.06;5080559;27;45230;-76
2023/08/10 10:32:08;;;;;;;;;2.33;2.33;;;;;27.35;55.23;101718.34;5081288;27;45532;-76
2023/08/10 10:34:34;;;;;;;;;2.00;2.00;;;;;27.32;56.66;101724.94;5074304;27;45329;-76
2023/08/10 10:37:07;;;;;;;;;2.67;2.67;;;;;27.38;56.15;101721.59;5097215;27;45308;-76
2023/08/10 10:39:33;;;;;;;;;3.67;3.00;;;;;27.41;58.84;101713.13;5089809;27;45328;-76
2023/08/10 10:41:58;;;;;;;;;5.33;4.00;;;;;27.35;57.81;101685.75;5077975;27;46148;-75
2023/08/10 10:45:03;;;;;;;;;4.00;4.00;;;;;27.60;57.49;101703.94;5061904;28;45502;-76
2023/08/10 10:47:36;;;;;;;;;2.67;2.67;;;;;27.83;57.77;101712.41;5081203;27;45458;-76
2023/08/10 10:50:28;;;;;;;;;4.00;3.00;;;;;27.91;56.02;101699.69;5079225;27;45332;-76
2023/08/10 10:52:56;;;;;;;;;3.00;3.00;;;;;28.05;53.93;101709.09;5077195;28;48308;-76
2023/08/10 10:55:37;;;;;;;;;2.00;2.00;;;;;28.08;55.22;101716.09;5092030;27;45440;-76
2023/08/10 10:58:04;;;;;;;;;4.00;3.00;;;;;28.07;54.14;101714.41;5080060;27;45284;-76
2023/08/10 11:00:30;;;;;;;;;1.67;1.67;;;;;28.04;54.19;101709.28;5074251;28;45521;-76
2023/08/10 11:02:56;;;;;;;;;2.00;2.00;;;;;28.07;55.65;101712.56;5060650;28;45386;-76
2023/08/10 11:05:21;;;;;;;;;3.00;3.00;;;;;28.16;53.44;101705.25;5091847;27;45289;-76
2023/08/10 11:07:50;;;;;;;;;5.00;3.67;;;;;28.25;54.61;101713.28;5078611;27;45227;-76
2023/08/10 11:10:17;;;;;;;;;2.00;2.00;;;;;28.33;54.18;101715.19;5078942;27;45402;-76
2023/08/10 11:12:43;;;;;;;;;2.00;2.00;;;;;28.47;54.54;101721.88;5076304;28;47215;-76
2023/08/10 11:15:11;;;;;;;;;2.00;2.00;;;;;28.57;54.66;101715.25;5078915;27;45388;-76